sensor_id;sensor_type;location;lat;lon;timestamp;P1;durP1;ratioP1;P2;durP2;ratioP2
61569;SDS011;47462;59.172;17.196;2022-07-06T00:01:15;3.22;;;0.57;;
61569;SDS011;47462;59.172;17.196;2022-07-06T00:03:41;4.93;;;0.90;;
61569;SDS011;47462;59.172;17.196;2022-07-06T00:06:06;4.28;;;0.40;;
61569;SDS011;47462;59.172;17.196;2022-07-06T00:08:32;2.08;;;0.60;;
61569;SDS011;47462;59.172;17.196;2022-07-06T00:10:57;5.65;;;0.77;;
61569;SDS011;47462;59.172;17.196;2022-07-06T00:13:23;4.50;;;1.05;;
61569;SDS011;47462;59.172;17.196;2022-07-06T00:15:48;1.17;;;0.32;;
61569;SDS011;47462;59.172;17.196;2022-07-06T00:18:14;3.67;;;0.65;;
61569;SDS011;47462;59.172;17.196;2022-07-06T00:20:39;3.28;;;0.60;;
61569;SDS011;47462;59.172;17.196;2022-07-06T00:23:05;2.63;;;0.40;;
61569;SDS011;47462;59.172;17.196;2022-07-06T00:25:30;2.93;;;0.40;;
61569;SDS011;47462;59.172;17.196;2022-07-06T00:27:55;2.63;;;0.55;;
61569;SDS011;47462;59.172;17.196;2022-07-06T00:30:21;3.28;;;0.40;;
61569;SDS011;47462;59.172;17.196;2022-07-06T00:32:46;3.60;;;0.55;;
61569;SDS011;47462;59.172;17.196;2022-07-06T00:35:12;1.45;;;0.55;;
61569;SDS011;47462;59.172;17.196;2022-07-06T00:37:37;6.05;;;0.82;;
61569;SDS011;47462;59.172;17.196;2022-07-06T00:40:02;2.35;;;0.70;;
61569;SDS011;47462;59.172;17.196;2022-07-06T00:42:28;4.32;;;0.60;;
61569;SDS011;47462;59.172;17.196;2022-07-06T00:44:54;1.63;;;0.52;;
61569;SDS011;47462;59.172;17.196;2022-07-06T00:47:19;2.40;;;0.57;;
61569;SDS011;47462;59.172;17.196;2022-07-06T00:49:44;3.08;;;0.50;;
61569;SDS011;47462;59.172;17.196;2022-07-06T00:52:29;4.47;;;0.77;;
61569;SDS011;47462;59.172;17.196;2022-07-06T00:54:54;4.22;;;0.70;;
61569;SDS011;47462;59.172;17.196;2022-07-06T00:57:19;6.67;;;0.93;;
61569;SDS011;47462;59.172;17.196;2022-07-06T00:59:45;3.53;;;1.52;;
61569;SDS011;47462;59.172;17.196;2022-07-06T01:02:11;2.08;;;0.60;;
61569;SDS011;47462;59.172;17.196;2022-07-06T01:04:36;4.50;;;0.93;;
61569;SDS011;47462;59.172;17.196;2022-07-06T01:07:02;3.63;;;0.60;;
61569;SDS011;47462;59.172;17.196;2022-07-06T01:09:27;4.80;;;2.10;;
61569;SDS011;47462;59.172;17.196;2022-07-06T01:11:54;3.27;;;0.40;;
61569;SDS011;47462;59.172;17.196;2022-07-06T01:14:26;3.05;;;0.52;;
61569;SDS011;47462;59.172;17.196;2022-07-06T01:16:52;3.38;;;0.60;;
61569;SDS011;47462;59.172;17.196;2022-07-06T01:19:17;2.03;;;0.57;;
61569;SDS011;47462;59.172;17.196;2022-07-06T01:21:43;4.32;;;0.77;;
61569;SDS011;47462;59.172;17.196;2022-07-06T01:24:09;5.15;;;1.27;;
61569;SDS011;47462;59.172;17.196;2022-07-06T01:26:34;4.85;;;0.73;;
61569;SDS011;47462;59.172;17.196;2022-07-06T01:29:00;2.58;;;0.77;;
61569;SDS011;47462;59.172;17.196;2022-07-06T01:31:26;3.75;;;1.10;;
61569;SDS011;47462;59.172;17.196;2022-07-06T01:33:53;5.28;;;1.35;;
61569;SDS011;47462;59.172;17.196;2022-07-06T01:36:21;3.75;;;0.85;;
61569;SDS011;47462;59.172;17.196;2022-07-06T01:38:47;3.40;;;0.68;;
61569;SDS011;47462;59.172;17.196;2022-07-06T01:41:22;3.15;;;0.63;;
61569;SDS011;47462;59.172;17.196;2022-07-06T01:43:47;5.45;;;1.13;;
61569;SDS011;47462;59.172;17.196;2022-07-06T01:46:13;3.03;;;0.77;;
61569;SDS011;47462;59.172;17.196;2022-07-06T01:51:05;7.00;;;0.57;;
61569;SDS011;47462;59.172;17.196;2022-07-06T01:53:31;9.23;;;1.15;;
61569;SDS011;47462;59.172;17.196;2022-07-06T01:55:57;4.45;;;0.68;;
61569;SDS011;47462;59.172;17.196;2022-07-06T01:58:23;5.38;;;0.70;;
61569;SDS011;47462;59.172;17.196;2022-07-06T02:00:48;7.32;;;0.93;;
61569;SDS011;47462;59.172;17.196;2022-07-06T02:03:15;6.18;;;0.70;;
61569;SDS011;47462;59.172;17.196;2022-07-06T02:05:41;6.18;;;0.90;;
61569;SDS011;47462;59.172;17.196;2022-07-06T02:08:07;3.50;;;0.98;;
61569;SDS011;47462;59.172;17.196;2022-07-06T02:10:32;4.47;;;1.23;;
61569;SDS011;47462;59.172;17.196;2022-07-06T02:12:58;3.97;;;1.33;;
61569;SDS011;47462;59.172;17.196;2022-07-06T02:15:24;6.95;;;0.70;;
61569;SDS011;47462;59.172;17.196;2022-07-06T02:17:49;6.55;;;0.93;;
61569;SDS011;47462;59.172;17.196;2022-07-06T02:20:15;1.90;;;0.68;;
61569;SDS011;47462;59.172;17.196;2022-07-06T02:22:41;4.93;;;0.85;;
61569;SDS011;47462;59.172;17.196;2022-07-06T02:25:07;4.68;;;0.82;;
61569;SDS011;47462;59.172;17.196;2022-07-06T02:27:33;6.60;;;1.02;;
61569;SDS011;47462;59.172;17.196;2022-07-06T02:32:25;4.13;;;0.73;;
61569;SDS011;47462;59.172;17.196;2022-07-06T02:34:51;3.83;;;0.52;;
61569;SDS011;47462;59.172;17.196;2022-07-06T02:37:17;3.90;;;0.82;;
61569;SDS011;47462;59.172;17.196;2022-07-06T02:39:46;4.45;;;0.82;;
61569;SDS011;47462;59.172;17.196;2022-07-06T02:42:16;2.83;;;1.02;;
61569;SDS011;47462;59.172;17.196;2022-07-06T02:44:44;6.32;;;0.80;;
61569;SDS011;47462;59.172;17.196;2022-07-06T02:47:10;2.13;;;0.80;;
61569;SDS011;47462;59.172;17.196;2022-07-06T02:49:41;4.75;;;1.10;;
61569;SDS011;47462;59.172;17.196;2022-07-06T02:52:07;4.75;;;0.90;;
61569;SDS011;47462;59.172;17.196;2022-07-06T02:54:35;11.07;;;1.48;;
61569;SDS011;47462;59.172;17.196;2022-07-06T02:57:02;3.90;;;0.82;;
61569;SDS011;47462;59.172;17.196;2022-07-06T02:59:28;4.75;;;0.73;;
61569;SDS011;47462;59.172;17.196;2022-07-06T03:01:54;3.97;;;0.70;;
61569;SDS011;47462;59.172;17.196;2022-07-06T03:04:19;4.28;;;0.80;;
61569;SDS011;47462;59.172;17.196;2022-07-06T03:06:46;2.78;;;0.93;;
61569;SDS011;47462;59.172;17.196;2022-07-06T03:09:15;4.70;;;0.88;;
61569;SDS011;47462;59.172;17.196;2022-07-06T03:11:41;3.90;;;1.02;;
61569;SDS011;47462;59.172;17.196;2022-07-06T03:14:07;3.17;;;0.80;;
61569;SDS011;47462;59.172;17.196;2022-07-06T03:16:34;4.38;;;0.90;;
61569;SDS011;47462;59.172;17.196;2022-07-06T03:19:04;4.25;;;0.77;;
61569;SDS011;47462;59.172;17.196;2022-07-06T03:21:33;3.40;;;1.00;;
61569;SDS011;47462;59.172;17.196;2022-07-06T03:24:00;3.70;;;1.10;;
61569;SDS011;47462;59.172;17.196;2022-07-06T03:26:26;5.78;;;1.00;;
61569;SDS011;47462;59.172;17.196;2022-07-06T03:28:55;3.67;;;1.05;;
61569;SDS011;47462;59.172;17.196;2022-07-06T03:31:21;5.72;;;1.50;;
61569;SDS011;47462;59.172;17.196;2022-07-06T03:33:46;2.85;;;1.65;;
61569;SDS011;47462;59.172;17.196;2022-07-06T03:36:16;5.65;;;1.08;;
61569;SDS011;47462;59.172;17.196;2022-07-06T03:38:43;3.47;;;0.90;;
61569;SDS011;47462;59.172;17.196;2022-07-06T03:41:09;6.43;;;0.90;;
61569;SDS011;47462;59.172;17.196;2022-07-06T03:43:35;3.05;;;0.93;;
61569;SDS011;47462;59.172;17.196;2022-07-06T03:46:01;4.15;;;0.77;;
61569;SDS011;47462;59.172;17.196;2022-07-06T03:48:27;4.90;;;0.80;;
61569;SDS011;47462;59.172;17.196;2022-07-06T03:50:54;4.65;;;1.00;;
61569;SDS011;47462;59.172;17.196;2022-07-06T03:53:20;3.72;;;0.90;;
61569;SDS011;47462;59.172;17.196;2022-07-06T03:55:46;4.30;;;0.90;;
61569;SDS011;47462;59.172;17.196;2022-07-06T03:58:32;3.43;;;0.90;;
61569;SDS011;47462;59.172;17.196;2022-07-06T04:00:59;6.38;;;0.98;;
61569;SDS011;47462;59.172;17.196;2022-07-06T04:03:25;2.95;;;1.13;;
61569;SDS011;47462;59.172;17.196;2022-07-06T04:05:51;8.32;;;1.67;;
61569;SDS011;47462;59.172;17.196;2022-07-06T04:08:18;5.35;;;1.10;;
61569;SDS011;47462;59.172;17.196;2022-07-06T04:10:45;4.03;;;0.77;;
61569;SDS011;47462;59.172;17.196;2022-07-06T04:13:12;4.63;;;1.10;;
61569;SDS011;47462;59.172;17.196;2022-07-06T04:15:39;3.65;;;0.95;;
61569;SDS011;47462;59.172;17.196;2022-07-06T04:18:06;3.17;;;0.85;;
61569;SDS011;47462;59.172;17.196;2022-07-06T04:22:58;4.28;;;1.00;;
61569;SDS011;47462;59.172;17.196;2022-07-06T04:25:27;3.85;;;1.52;;
61569;SDS011;47462;59.172;17.196;2022-07-06T04:27:54;5.78;;;1.73;;
61569;SDS011;47462;59.172;17.196;2022-07-06T04:30:21;3.15;;;0.68;;
61569;SDS011;47462;59.172;17.196;2022-07-06T04:32:47;4.90;;;1.50;;
61569;SDS011;47462;59.172;17.196;2022-07-06T04:35:13;3.75;;;0.88;;
61569;SDS011;47462;59.172;17.196;2022-07-06T04:37:40;2.15;;;0.90;;
61569;SDS011;47462;59.172;17.196;2022-07-06T04:40:07;3.05;;;0.98;;
61569;SDS011;47462;59.172;17.196;2022-07-06T04:42:37;3.35;;;1.20;;
61569;SDS011;47462;59.172;17.196;2022-07-06T04:45:03;3.30;;;0.93;;
61569;SDS011;47462;59.172;17.196;2022-07-06T04:47:33;5.85;;;1.13;;
61569;SDS011;47462;59.172;17.196;2022-07-06T04:50:00;7.50;;;0.82;;
61569;SDS011;47462;59.172;17.196;2022-07-06T04:52:28;4.47;;;0.98;;
61569;SDS011;47462;59.172;17.196;2022-07-06T04:57:20;7.03;;;1.10;;
61569;SDS011;47462;59.172;17.196;2022-07-06T04:59:47;2.95;;;1.13;;
61569;SDS011;47462;59.172;17.196;2022-07-06T05:02:13;8.18;;;1.67;;
61569;SDS011;47462;59.172;17.196;2022-07-06T05:04:40;5.13;;;1.17;;
61569;SDS011;47462;59.172;17.196;2022-07-06T05:07:05;6.97;;;1.10;;
61569;SDS011;47462;59.172;17.196;2022-07-06T05:09:31;3.80;;;0.57;;
61569;SDS011;47462;59.172;17.196;2022-07-06T05:11:57;1.48;;;0.98;;
61569;SDS011;47462;59.172;17.196;2022-07-06T05:16:49;3.67;;;0.70;;
61569;SDS011;47462;59.172;17.196;2022-07-06T05:19:16;5.75;;;0.80;;
61569;SDS011;47462;59.172;17.196;2022-07-06T05:21:42;5.40;;;1.40;;
61569;SDS011;47462;59.172;17.196;2022-07-06T05:24:10;3.90;;;0.80;;
61569;SDS011;47462;59.172;17.196;2022-07-06T05:26:37;5.22;;;0.90;;
61569;SDS011;47462;59.172;17.196;2022-07-06T05:29:04;6.75;;;1.23;;
61569;SDS011;47462;59.172;17.196;2022-07-06T05:31:30;6.35;;;1.00;;
61569;SDS011;47462;59.172;17.196;2022-07-06T05:33:59;7.28;;;0.98;;
61569;SDS011;47462;59.172;17.196;2022-07-06T05:36:25;4.75;;;0.98;;
61569;SDS011;47462;59.172;17.196;2022-07-06T05:38:56;2.13;;;0.80;;
61569;SDS011;47462;59.172;17.196;2022-07-06T05:41:26;5.60;;;1.13;;
61569;SDS011;47462;59.172;17.196;2022-07-06T05:43:54;6.60;;;1.02;;
61569;SDS011;47462;59.172;17.196;2022-07-06T05:46:30;11.60;;;1.52;;
61569;SDS011;47462;59.172;17.196;2022-07-06T05:48:57;6.15;;;1.55;;
61569;SDS011;47462;59.172;17.196;2022-07-06T05:51:44;6.32;;;1.20;;
61569;SDS011;47462;59.172;17.196;2022-07-06T05:54:10;4.72;;;1.50;;
61569;SDS011;47462;59.172;17.196;2022-07-06T05:56:37;7.07;;;1.23;;
61569;SDS011;47462;59.172;17.196;2022-07-06T05:59:02;7.00;;;1.00;;
61569;SDS011;47462;59.172;17.196;2022-07-06T06:01:28;5.38;;;1.17;;
61569;SDS011;47462;59.172;17.196;2022-07-06T06:03:54;7.97;;;1.13;;
61569;SDS011;47462;59.172;17.196;2022-07-06T06:06:21;8.60;;;1.23;;
61569;SDS011;47462;59.172;17.196;2022-07-06T06:08:48;4.43;;;1.02;;
61569;SDS011;47462;59.172;17.196;2022-07-06T06:11:17;9.32;;;1.42;;
61569;SDS011;47462;59.172;17.196;2022-07-06T06:13:43;2.72;;;1.02;;
61569;SDS011;47462;59.172;17.196;2022-07-06T06:16:15;5.80;;;1.30;;
61569;SDS011;47462;59.172;17.196;2022-07-06T06:18:41;7.20;;;1.10;;
61569;SDS011;47462;59.172;17.196;2022-07-06T06:21:08;9.43;;;2.45;;
61569;SDS011;47462;59.172;17.196;2022-07-06T06:23:36;4.22;;;1.00;;
61569;SDS011;47462;59.172;17.196;2022-07-06T06:26:02;8.05;;;1.40;;
61569;SDS011;47462;59.172;17.196;2022-07-06T06:30:53;6.35;;;1.75;;
61569;SDS011;47462;59.172;17.196;2022-07-06T06:35:49;6.45;;;1.00;;
61569;SDS011;47462;59.172;17.196;2022-07-06T06:38:16;6.72;;;0.95;;
61569;SDS011;47462;59.172;17.196;2022-07-06T06:40:47;5.47;;;0.80;;
61569;SDS011;47462;59.172;17.196;2022-07-06T06:43:13;6.85;;;1.20;;
61569;SDS011;47462;59.172;17.196;2022-07-06T06:45:42;6.13;;;1.13;;
61569;SDS011;47462;59.172;17.196;2022-07-06T06:48:10;3.65;;;0.70;;
61569;SDS011;47462;59.172;17.196;2022-07-06T06:50:40;6.40;;;0.98;;
61569;SDS011;47462;59.172;17.196;2022-07-06T06:55:31;4.60;;;1.30;;
61569;SDS011;47462;59.172;17.196;2022-07-06T06:58:00;4.40;;;0.80;;
61569;SDS011;47462;59.172;17.196;2022-07-06T07:00:30;4.95;;;1.10;;
61569;SDS011;47462;59.172;17.196;2022-07-06T07:02:56;6.13;;;1.02;;
61569;SDS011;47462;59.172;17.196;2022-07-06T07:05:22;5.70;;;1.20;;
61569;SDS011;47462;59.172;17.196;2022-07-06T07:07:49;8.18;;;1.60;;
61569;SDS011;47462;59.172;17.196;2022-07-06T07:10:26;2.70;;;0.80;;
61569;SDS011;47462;59.172;17.196;2022-07-06T07:13:04;4.38;;;1.00;;
61569;SDS011;47462;59.172;17.196;2022-07-06T07:15:30;5.70;;;1.35;;
61569;SDS011;47462;59.172;17.196;2022-07-06T07:17:58;4.18;;;0.98;;
61569;SDS011;47462;59.172;17.196;2022-07-06T07:20:26;5.15;;;1.23;;
61569;SDS011;47462;59.172;17.196;2022-07-06T07:22:52;3.22;;;0.70;;
61569;SDS011;47462;59.172;17.196;2022-07-06T07:25:19;6.93;;;1.60;;
61569;SDS011;47462;59.172;17.196;2022-07-06T07:27:45;6.65;;;1.02;;
61569;SDS011;47462;59.172;17.196;2022-07-06T07:32:38;5.32;;;0.98;;
61569;SDS011;47462;59.172;17.196;2022-07-06T07:35:07;5.75;;;1.38;;
61569;SDS011;47462;59.172;17.196;2022-07-06T07:37:34;6.60;;;0.90;;
61569;SDS011;47462;59.172;17.196;2022-07-06T07:40:03;6.15;;;1.02;;
61569;SDS011;47462;59.172;17.196;2022-07-06T07:42:30;5.72;;;1.00;;
61569;SDS011;47462;59.172;17.196;2022-07-06T07:47:25;4.63;;;0.90;;
61569;SDS011;47462;59.172;17.196;2022-07-06T07:49:50;5.47;;;0.80;;
61569;SDS011;47462;59.172;17.196;2022-07-06T07:52:20;8.13;;;1.40;;
61569;SDS011;47462;59.172;17.196;2022-07-06T07:57:11;3.00;;;0.77;;
61569;SDS011;47462;59.172;17.196;2022-07-06T08:02:02;4.00;;;0.77;;
61569;SDS011;47462;59.172;17.196;2022-07-06T08:04:29;3.85;;;1.20;;
61569;SDS011;47462;59.172;17.196;2022-07-06T08:06:58;4.43;;;0.68;;
61569;SDS011;47462;59.172;17.196;2022-07-06T08:09:25;3.28;;;1.00;;
61569;SDS011;47462;59.172;17.196;2022-07-06T08:11:52;2.00;;;0.50;;
61569;SDS011;47462;59.172;17.196;2022-07-06T08:14:18;4.50;;;1.15;;
61569;SDS011;47462;59.172;17.196;2022-07-06T08:16:47;2.60;;;0.82;;
61569;SDS011;47462;59.172;17.196;2022-07-06T08:19:16;4.35;;;1.10;;
61569;SDS011;47462;59.172;17.196;2022-07-06T08:21:42;5.57;;;0.77;;
61569;SDS011;47462;59.172;17.196;2022-07-06T08:24:34;4.68;;;1.02;;
61569;SDS011;47462;59.172;17.196;2022-07-06T08:27:01;5.75;;;0.82;;
61569;SDS011;47462;59.172;17.196;2022-07-06T08:29:31;3.20;;;0.60;;
61569;SDS011;47462;59.172;17.196;2022-07-06T08:32:00;2.40;;;0.90;;
61569;SDS011;47462;59.172;17.196;2022-07-06T08:34:29;2.97;;;0.65;;
61569;SDS011;47462;59.172;17.196;2022-07-06T08:36:54;6.10;;;1.00;;
61569;SDS011;47462;59.172;17.196;2022-07-06T08:39:20;1.80;;;0.75;;
61569;SDS011;47462;59.172;17.196;2022-07-06T08:41:46;5.43;;;0.88;;
61569;SDS011;47462;59.172;17.196;2022-07-06T08:44:14;2.92;;;0.60;;
61569;SDS011;47462;59.172;17.196;2022-07-06T08:46:41;4.72;;;0.85;;
61569;SDS011;47462;59.172;17.196;2022-07-06T08:49:14;2.13;;;0.60;;
61569;SDS011;47462;59.172;17.196;2022-07-06T08:51:42;4.28;;;0.90;;
61569;SDS011;47462;59.172;17.196;2022-07-06T08:54:08;4.00;;;0.90;;
61569;SDS011;47462;59.172;17.196;2022-07-06T08:56:36;4.25;;;1.13;;
61569;SDS011;47462;59.172;17.196;2022-07-06T08:59:03;2.47;;;0.70;;
61569;SDS011;47462;59.172;17.196;2022-07-06T09:01:36;2.75;;;0.65;;
61569;SDS011;47462;59.172;17.196;2022-07-06T09:04:28;2.00;;;0.50;;
61569;SDS011;47462;59.172;17.196;2022-07-06T09:09:55;3.38;;;1.10;;
61569;SDS011;47462;59.172;17.196;2022-07-06T09:12:26;6.90;;;1.23;;
61569;SDS011;47462;59.172;17.196;2022-07-06T09:14:55;1.98;;;0.60;;
61569;SDS011;47462;59.172;17.196;2022-07-06T09:17:28;1.85;;;0.73;;
61569;SDS011;47462;59.172;17.196;2022-07-06T09:20:08;2.25;;;0.57;;
61569;SDS011;47462;59.172;17.196;2022-07-06T09:22:50;2.45;;;0.57;;
61569;SDS011;47462;59.172;17.196;2022-07-06T09:25:23;6.50;;;1.20;;
61569;SDS011;47462;59.172;17.196;2022-07-06T09:27:51;2.03;;;0.70;;
61569;SDS011;47462;59.172;17.196;2022-07-06T09:30:20;3.00;;;0.85;;
61569;SDS011;47462;59.172;17.196;2022-07-06T09:32:57;2.40;;;0.73;;
61569;SDS011;47462;59.172;17.196;2022-07-06T09:35:25;6.03;;;1.17;;
61569;SDS011;47462;59.172;17.196;2022-07-06T09:38:13;1.30;;;0.75;;
61569;SDS011;47462;59.172;17.196;2022-07-06T09:40:44;2.25;;;0.50;;
61569;SDS011;47462;59.172;17.196;2022-07-06T09:45:49;2.20;;;0.57;;
61569;SDS011;47462;59.172;17.196;2022-07-06T09:50:49;5.03;;;1.08;;
61569;SDS011;47462;59.172;17.196;2022-07-06T09:53:20;5.78;;;0.93;;
61569;SDS011;47462;59.172;17.196;2022-07-06T09:55:52;3.88;;;0.88;;
61569;SDS011;47462;59.172;17.196;2022-07-06T09:58:20;1.85;;;0.65;;
61569;SDS011;47462;59.172;17.196;2022-07-06T10:00:52;4.30;;;0.77;;
61569;SDS011;47462;59.172;17.196;2022-07-06T10:03:29;1.85;;;0.52;;
61569;SDS011;47462;59.172;17.196;2022-07-06T10:05:59;3.88;;;0.80;;
61569;SDS011;47462;59.172;17.196;2022-07-06T10:08:32;2.75;;;0.80;;
61569;SDS011;47462;59.172;17.196;2022-07-06T10:10:58;1.63;;;0.57;;
61569;SDS011;47462;59.172;17.196;2022-07-06T10:13:24;3.85;;;0.63;;
61569;SDS011;47462;59.172;17.196;2022-07-06T10:15:52;2.30;;;0.40;;
61569;SDS011;47462;59.172;17.196;2022-07-06T10:18:19;3.22;;;0.77;;
61569;SDS011;47462;59.172;17.196;2022-07-06T10:20:45;2.63;;;0.82;;
61569;SDS011;47462;59.172;17.196;2022-07-06T10:23:10;3.95;;;1.00;;
61569;SDS011;47462;59.172;17.196;2022-07-06T10:25:36;1.92;;;0.50;;
61569;SDS011;47462;59.172;17.196;2022-07-06T10:28:02;2.45;;;0.50;;
61569;SDS011;47462;59.172;17.196;2022-07-06T10:30:28;3.42;;;0.70;;
61569;SDS011;47462;59.172;17.196;2022-07-06T10:32:56;2.42;;;0.70;;
61569;SDS011;47462;59.172;17.196;2022-07-06T10:35:23;1.55;;;0.57;;
61569;SDS011;47462;59.172;17.196;2022-07-06T10:38:05;1.63;;;0.32;;
61569;SDS011;47462;59.172;17.196;2022-07-06T10:40:35;3.22;;;0.60;;
61569;SDS011;47462;59.172;17.196;2022-07-06T10:43:20;3.20;;;0.60;;
61569;SDS011;47462;59.172;17.196;2022-07-06T10:50:41;1.58;;;0.40;;
61569;SDS011;47462;59.172;17.196;2022-07-06T10:53:21;2.47;;;0.50;;
61569;SDS011;47462;59.172;17.196;2022-07-06T10:55:50;2.90;;;0.50;;
61569;SDS011;47462;59.172;17.196;2022-07-06T10:58:39;2.72;;;0.50;;
61569;SDS011;47462;59.172;17.196;2022-07-06T11:01:10;2.28;;;0.40;;
61569;SDS011;47462;59.172;17.196;2022-07-06T11:06:19;2.03;;;0.57;;
61569;SDS011;47462;59.172;17.196;2022-07-06T11:08:47;4.95;;;0.50;;
61569;SDS011;47462;59.172;17.196;2022-07-06T11:11:19;4.85;;;0.60;;
61569;SDS011;47462;59.172;17.196;2022-07-06T11:16:29;3.22;;;0.80;;
61569;SDS011;47462;59.172;17.196;2022-07-06T11:19:06;2.92;;;0.30;;
61569;SDS011;47462;59.172;17.196;2022-07-06T11:24:10;1.52;;;0.70;;
61569;SDS011;47462;59.172;17.196;2022-07-06T11:26:44;3.42;;;0.63;;
61569;SDS011;47462;59.172;17.196;2022-07-06T11:29:11;2.60;;;0.57;;
61569;SDS011;47462;59.172;17.196;2022-07-06T11:31:41;1.85;;;0.60;;
61569;SDS011;47462;59.172;17.196;2022-07-06T11:34:09;2.60;;;0.68;;
61569;SDS011;47462;59.172;17.196;2022-07-06T11:36:36;2.47;;;0.40;;
61569;SDS011;47462;59.172;17.196;2022-07-06T11:39:03;0.75;;;0.40;;
61569;SDS011;47462;59.172;17.196;2022-07-06T11:41:30;1.40;;;0.40;;
61569;SDS011;47462;59.172;17.196;2022-07-06T11:43:56;0.35;;;0.10;;
61569;SDS011;47462;59.172;17.196;2022-07-06T11:49:02;1.65;;;0.38;;
61569;SDS011;47462;59.172;17.196;2022-07-06T11:51:31;2.85;;;0.77;;
61569;SDS011;47462;59.172;17.196;2022-07-06T11:53:59;2.15;;;0.60;;
61569;SDS011;47462;59.172;17.196;2022-07-06T11:56:26;1.48;;;0.30;;
61569;SDS011;47462;59.172;17.196;2022-07-06T11:58:54;1.42;;;0.40;;
61569;SDS011;47462;59.172;17.196;2022-07-06T12:01:25;3.53;;;0.50;;
61569;SDS011;47462;59.172;17.196;2022-07-06T12:03:52;2.17;;;0.25;;
61569;SDS011;47462;59.172;17.196;2022-07-06T12:06:22;1.48;;;0.35;;
61569;SDS011;47462;59.172;17.196;2022-07-06T12:09:00;3.05;;;0.77;;
61569;SDS011;47462;59.172;17.196;2022-07-06T12:11:32;1.30;;;0.30;;
61569;SDS011;47462;59.172;17.196;2022-07-06T12:14:01;1.27;;;0.35;;
61569;SDS011;47462;59.172;17.196;2022-07-06T12:16:32;0.95;;;0.30;;
61569;SDS011;47462;59.172;17.196;2022-07-06T12:19:00;1.63;;;0.47;;
61569;SDS011;47462;59.172;17.196;2022-07-06T12:21:26;1.98;;;0.45;;
61569;SDS011;47462;59.172;17.196;2022-07-06T12:23:53;1.63;;;0.40;;
61569;SDS011;47462;59.172;17.196;2022-07-06T12:26:28;1.70;;;0.30;;
61569;SDS011;47462;59.172;17.196;2022-07-06T12:29:11;1.10;;;0.30;;
61569;SDS011;47462;59.172;17.196;2022-07-06T12:34:20;1.05;;;0.25;;
61569;SDS011;47462;59.172;17.196;2022-07-06T12:36:54;2.67;;;0.50;;
61569;SDS011;47462;59.172;17.196;2022-07-06T12:39:22;3.85;;;0.47;;
61569;SDS011;47462;59.172;17.196;2022-07-06T12:41:53;2.78;;;0.40;;
61569;SDS011;47462;59.172;17.196;2022-07-06T12:44:24;1.60;;;0.50;;
61569;SDS011;47462;59.172;17.196;2022-07-06T12:46:51;2.50;;;0.30;;
61569;SDS011;47462;59.172;17.196;2022-07-06T12:49:27;1.15;;;0.35;;
61569;SDS011;47462;59.172;17.196;2022-07-06T12:54:25;1.52;;;0.20;;
61569;SDS011;47462;59.172;17.196;2022-07-06T12:57:42;1.50;;;0.40;;
61569;SDS011;47462;59.172;17.196;2022-07-06T12:59:55;2.55;;;0.50;;
61569;SDS011;47462;59.172;17.196;2022-07-06T13:02:22;2.33;;;0.32;;
61569;SDS011;47462;59.172;17.196;2022-07-06T13:04:58;2.60;;;0.30;;
61569;SDS011;47462;59.172;17.196;2022-07-06T13:07:39;2.05;;;0.30;;
61569;SDS011;47462;59.172;17.196;2022-07-06T13:10:14;0.28;;;0.10;;
61569;SDS011;47462;59.172;17.196;2022-07-06T13:13:00;1.60;;;0.30;;
61569;SDS011;47462;59.172;17.196;2022-07-06T13:15:33;0.32;;;0.17;;
61569;SDS011;47462;59.172;17.196;2022-07-06T13:18:26;0.57;;;0.15;;
61569;SDS011;47462;59.172;17.196;2022-07-06T13:20:59;0.55;;;0.10;;
61569;SDS011;47462;59.172;17.196;2022-07-06T13:23:24;0.40;;;0.20;;
61569;SDS011;47462;59.172;17.196;2022-07-06T13:25:50;0.20;;;0.00;;
61569;SDS011;47462;59.172;17.196;2022-07-06T13:28:16;0.88;;;0.20;;
61569;SDS011;47462;59.172;17.196;2022-07-06T13:30:41;0.43;;;0.20;;
61569;SDS011;47462;59.172;17.196;2022-07-06T13:33:07;0.10;;;0.10;;
61569;SDS011;47462;59.172;17.196;2022-07-06T13:35:33;0.75;;;0.38;;
61569;SDS011;47462;59.172;17.196;2022-07-06T13:37:59;1.70;;;0.20;;
61569;SDS011;47462;59.172;17.196;2022-07-06T13:40:24;0.68;;;0.20;;
61569;SDS011;47462;59.172;17.196;2022-07-06T13:42:50;0.75;;;0.13;;
61569;SDS011;47462;59.172;17.196;2022-07-06T13:45:21;0.40;;;0.10;;
61569;SDS011;47462;59.172;17.196;2022-07-06T13:47:46;1.77;;;0.20;;
61569;SDS011;47462;59.172;17.196;2022-07-06T13:50:12;1.63;;;0.20;;
61569;SDS011;47462;59.172;17.196;2022-07-06T13:52:38;0.57;;;0.25;;
61569;SDS011;47462;59.172;17.196;2022-07-06T13:55:04;0.82;;;0.22;;
61569;SDS011;47462;59.172;17.196;2022-07-06T13:57:31;1.38;;;0.20;;
61569;SDS011;47462;59.172;17.196;2022-07-06T13:59:56;0.55;;;0.13;;
61569;SDS011;47462;59.172;17.196;2022-07-06T14:02:22;0.82;;;0.20;;
61569;SDS011;47462;59.172;17.196;2022-07-06T14:04:47;0.50;;;0.10;;
61569;SDS011;47462;59.172;17.196;2022-07-06T14:07:16;0.45;;;0.08;;
61569;SDS011;47462;59.172;17.196;2022-07-06T14:09:42;0.30;;;0.10;;
61569;SDS011;47462;59.172;17.196;2022-07-06T14:12:08;0.55;;;0.17;;
61569;SDS011;47462;59.172;17.196;2022-07-06T14:14:34;1.10;;;0.20;;
61569;SDS011;47462;59.172;17.196;2022-07-06T14:16:59;0.20;;;0.10;;
61569;SDS011;47462;59.172;17.196;2022-07-06T14:19:25;0.08;;;0.00;;
61569;SDS011;47462;59.172;17.196;2022-07-06T14:21:51;0.00;;;0.00;;
61569;SDS011;47462;59.172;17.196;2022-07-06T14:24:17;0.57;;;0.10;;
61569;SDS011;47462;59.172;17.196;2022-07-06T14:26:42;0.65;;;0.00;;
61569;SDS011;47462;59.172;17.196;2022-07-06T14:29:08;0.10;;;0.10;;
61569;SDS011;47462;59.172;17.196;2022-07-06T14:31:33;0.93;;;0.32;;
61569;SDS011;47462;59.172;17.196;2022-07-06T14:33:59;0.40;;;0.00;;
61569;SDS011;47462;59.172;17.196;2022-07-06T14:36:24;0.63;;;0.10;;
61569;SDS011;47462;59.172;17.196;2022-07-06T14:38:50;0.50;;;0.17;;
61569;SDS011;47462;59.172;17.196;2022-07-06T14:41:16;0.35;;;0.00;;
61569;SDS011;47462;59.172;17.196;2022-07-06T14:43:41;0.40;;;0.00;;
61569;SDS011;47462;59.172;17.196;2022-07-06T14:46:09;1.05;;;0.00;;
61569;SDS011;47462;59.172;17.196;2022-07-06T14:48:35;1.00;;;0.08;;
61569;SDS011;47462;59.172;17.196;2022-07-06T14:51:01;0.22;;;0.00;;
61569;SDS011;47462;59.172;17.196;2022-07-06T14:53:26;0.15;;;0.00;;
61569;SDS011;47462;59.172;17.196;2022-07-06T14:55:52;2.08;;;0.10;;
61569;SDS011;47462;59.172;17.196;2022-07-06T14:58:17;0.28;;;0.00;;
61569;SDS011;47462;59.172;17.196;2022-07-06T15:00:44;1.25;;;0.00;;
61569;SDS011;47462;59.172;17.196;2022-07-06T15:03:11;0.00;;;0.00;;
61569;SDS011;47462;59.172;17.196;2022-07-06T15:05:36;1.48;;;0.10;;
61569;SDS011;47462;59.172;17.196;2022-07-06T15:08:02;0.85;;;0.00;;
61569;SDS011;47462;59.172;17.196;2022-07-06T15:10:29;0.43;;;0.00;;
61569;SDS011;47462;59.172;17.196;2022-07-06T15:12:55;0.05;;;0.00;;
61569;SDS011;47462;59.172;17.196;2022-07-06T15:15:20;0.10;;;0.00;;
61569;SDS011;47462;59.172;17.196;2022-07-06T15:17:46;0.00;;;0.00;;
61569;SDS011;47462;59.172;17.196;2022-07-06T15:20:11;0.22;;;0.00;;
61569;SDS011;47462;59.172;17.196;2022-07-06T15:22:37;0.00;;;0.00;;
61569;SDS011;47462;59.172;17.196;2022-07-06T15:25:08;2.40;;;0.08;;
61569;SDS011;47462;59.172;17.196;2022-07-06T15:27:34;0.55;;;0.00;;
61569;SDS011;47462;59.172;17.196;2022-07-06T15:30:00;0.10;;;0.00;;
61569;SDS011;47462;59.172;17.196;2022-07-06T15:32:26;0.00;;;0.00;;
61569;SDS011;47462;59.172;17.196;2022-07-06T15:34:58;5.10;;;0.10;;
61569;SDS011;47462;59.172;17.196;2022-07-06T15:37:23;0.75;;;0.00;;